createdAt,value
2019-04-20T00:02:13.736Z,10.98
2019-04-20T00:04:37.346Z,11.10
2019-04-20T00:07:08.094Z,11.03
2019-04-20T00:09:39.961Z,10.35
2019-04-20T00:12:17.751Z,9.90
2019-04-20T00:14:41.336Z,10.68
2019-04-20T00:17:11.986Z,11.60
2019-04-20T00:19:47.088Z,11.25
2019-04-20T00:22:15.640Z,11.53
2019-04-20T00:25:00.431Z,10.45
2019-04-20T00:27:44.403Z,9.13
2019-04-20T00:30:22.776Z,10.18
2019-04-20T00:32:43.765Z,10.63
2019-04-20T00:34:59.955Z,10.03
2019-04-20T00:37:29.797Z,12.75
2019-04-20T00:39:59.591Z,9.78
2019-04-20T00:42:37.991Z,12.10
2019-04-20T00:45:08.435Z,11.90
2019-04-20T00:47:41.866Z,9.78
2019-04-20T00:50:21.350Z,10.50
2019-04-20T00:52:51.333Z,10.32
2019-04-20T00:55:08.345Z,10.53
2019-04-20T00:57:46.353Z,11.05
2019-04-20T01:00:25.849Z,9.75
2019-04-20T01:02:50.779Z,10.40
2019-04-20T01:05:35.370Z,10.63
2019-04-20T01:07:58.121Z,9.93
2019-04-20T01:10:28.315Z,10.03
2019-04-20T01:13:02.341Z,10.00
2019-04-20T01:15:38.611Z,9.60
2019-04-20T01:18:00.131Z,10.43
2019-04-20T01:20:29.761Z,10.90
2019-04-20T01:23:07.466Z,9.85
2019-04-20T01:25:37.621Z,10.25
2019-04-20T01:28:24.190Z,9.03
2019-04-20T01:30:41.988Z,9.20
2019-04-20T01:33:22.877Z,9.95
2019-04-20T01:35:56.685Z,9.45
2019-04-20T01:38:26.800Z,9.55
2019-04-20T01:40:44.391Z,9.35
2019-04-20T01:43:14.273Z,9.20
2019-04-20T01:45:45.364Z,10.85
2019-04-20T01:48:25.515Z,9.25
2019-04-20T01:50:54.847Z,9.68
2019-04-20T01:53:46.738Z,8.53
2019-04-20T01:56:13.749Z,8.08
2019-04-20T01:59:02.631Z,8.58
2019-04-20T02:01:35.559Z,8.10
2019-04-20T02:04:06.403Z,8.55
2019-04-20T02:06:42.556Z,8.00
2019-04-20T02:09:14.574Z,8.20
2019-04-20T02:11:43.587Z,8.33
2019-04-20T02:14:13.652Z,8.28
2019-04-20T02:16:48.006Z,9.50
2019-04-20T02:19:30.397Z,8.83
2019-04-20T02:22:00.225Z,16.00
2019-04-20T02:24:17.845Z,11.83
2019-04-20T02:26:50.080Z,10.25
2019-04-20T02:29:40.700Z,11.63
2019-04-20T02:32:32.195Z,14.05
2019-04-20T02:35:09.647Z,9.73
2019-04-20T02:40:35.366Z,12.18
2019-04-20T02:42:59.941Z,12.13
2019-04-20T02:50:30.169Z,12.07
2019-04-20T02:53:05.743Z,17.87
2019-04-20T02:55:31.343Z,24.15
2019-04-20T02:58:05.245Z,11.22
2019-04-20T03:00:35.576Z,15.32
2019-04-20T03:02:53.683Z,32.28
2019-04-20T03:05:28.078Z,25.43
2019-04-20T03:08:02.805Z,21.77
2019-04-20T03:10:44.661Z,21.17
2019-04-20T03:13:08.604Z,37.15
2019-04-20T03:15:38.184Z,15.18
2019-04-20T03:18:12.052Z,16.90
2019-04-20T03:20:41.726Z,12.43
2019-04-20T03:25:55.595Z,18.12
2019-04-20T03:28:28.422Z,12.40
2019-04-20T03:36:10.412Z,8.60
2019-04-20T03:38:26.202Z,10.05
2019-04-20T03:40:54.305Z,11.80
2019-04-20T03:43:12.065Z,10.50
2019-04-20T03:45:52.697Z,9.75
2019-04-20T03:48:33.600Z,9.35
2019-04-20T03:51:02.326Z,8.93
2019-04-20T03:53:38.535Z,7.97
2019-04-20T03:56:19.736Z,8.73
2019-04-20T03:58:51.920Z,8.70
2019-04-20T04:01:43.157Z,10.25
2019-04-20T04:04:05.338Z,10.20
2019-04-20T04:06:25.989Z,9.18
2019-04-20T04:09:06.416Z,9.60
2019-04-20T04:11:34.879Z,10.65
2019-04-20T04:13:52.436Z,8.88
2019-04-20T04:16:27.067Z,10.18
2019-04-20T04:19:07.831Z,9.05
2019-04-20T04:21:40.821Z,9.15
2019-04-20T04:24:09.564Z,10.32
2019-04-20T04:26:42.734Z,12.33
2019-04-20T04:29:25.741Z,13.10
2019-04-20T04:31:57.746Z,12.00
2019-04-20T04:34:27.471Z,10.78
2019-04-20T04:36:56.126Z,11.63
2019-04-20T04:39:34.008Z,12.43
2019-04-20T04:42:07.591Z,11.40
2019-04-20T04:44:23.927Z,10.65
2019-04-20T04:46:49.250Z,9.55
2019-04-20T04:49:20.844Z,28.55
2019-04-20T04:51:52.115Z,9.68
2019-04-20T04:54:25.858Z,12.35
2019-04-20T04:56:46.328Z,9.28
2019-04-20T04:59:17.137Z,8.80
2019-04-20T05:01:51.443Z,7.50
2019-04-20T05:04:40.129Z,8.70
2019-04-20T05:07:05.182Z,8.50
2019-04-20T05:09:23.801Z,7.85
2019-04-20T05:11:59.911Z,8.28
2019-04-20T05:14:38.088Z,7.30
2019-04-20T05:17:11.425Z,7.67
2019-04-20T05:19:50.074Z,7.83
2019-04-20T05:22:21.852Z,7.75
2019-04-20T05:25:02.271Z,6.35
2019-04-20T05:27:45.371Z,6.22
2019-04-20T05:29:59.157Z,6.62
2019-04-20T05:32:39.637Z,6.00
2019-04-20T05:35:25.489Z,5.95
2019-04-20T05:38:05.143Z,7.78
2019-04-20T05:40:29.285Z,5.72
2019-04-20T05:42:59.494Z,5.55
2019-04-20T05:45:24.913Z,5.75
2019-04-20T05:47:58.614Z,6.45
2019-04-20T05:50:30.276Z,6.22
2019-04-20T05:53:07.719Z,6.55
2019-04-20T05:55:41.619Z,8.00
2019-04-20T05:58:14.541Z,28.55
2019-04-20T06:00:48.132Z,7.40
2019-04-20T06:03:12.773Z,7.20
2019-04-20T06:05:55.521Z,7.50
2019-04-20T06:08:24.996Z,6.28
2019-04-20T06:10:52.269Z,5.70
2019-04-20T06:13:17.776Z,7.75
2019-04-20T06:15:53.682Z,8.90
2019-04-20T06:18:36.008Z,6.70
2019-04-20T06:21:21.301Z,6.60
2019-04-20T06:26:40.045Z,5.30
2019-04-20T06:28:50.851Z,5.60
2019-04-20T06:31:34.080Z,5.08
2019-04-20T06:36:52.626Z,5.25
2019-04-20T06:39:37.289Z,5.47
2019-04-20T06:42:07.092Z,5.53
2019-04-20T06:47:02.791Z,11.20
2019-04-20T06:51:59.325Z,5.22
2019-04-20T06:54:29.607Z,6.10
2019-04-20T06:57:07.102Z,8.50
2019-04-20T06:59:46.002Z,7.85
2019-04-20T07:02:17.249Z,8.38
2019-04-20T07:04:50.263Z,19.37
2019-04-20T07:07:14.553Z,6.05
2019-04-20T07:09:58.328Z,5.35
2019-04-20T07:12:12.439Z,6.55
2019-04-20T07:14:39.076Z,5.45
2019-04-20T07:17:26.990Z,9.00
2019-04-20T07:19:50.463Z,4.20
2019-04-20T07:22:37.576Z,4.90
2019-04-20T07:25:06.404Z,4.70
2019-04-20T07:27:41.594Z,4.17
2019-04-20T07:30:12.382Z,3.45
2019-04-20T07:32:49.827Z,3.98
2019-04-20T07:35:14.223Z,5.87
2019-04-20T07:40:20.397Z,3.12
2019-04-20T07:42:56.522Z,2.92
2019-04-20T07:45:30.887Z,7.12
2019-04-20T07:48:02.733Z,2.60
2019-04-20T07:50:21.711Z,4.25
2019-04-20T07:52:51.195Z,3.92
2019-04-20T07:55:37.037Z,2.42
2019-04-20T07:57:58.081Z,2.60
2019-04-20T08:03:16.322Z,2.67
2019-04-20T08:05:36.315Z,5.60
2019-04-20T08:08:16.862Z,2.58
2019-04-20T08:10:42.787Z,2.50
2019-04-20T08:13:27.546Z,2.12
2019-04-20T08:16:06.643Z,2.58
2019-04-20T08:18:27.591Z,2.77
2019-04-20T08:20:58.520Z,2.72
2019-04-20T08:23:38.636Z,2.77
2019-04-20T08:25:47.428Z,3.08
2019-04-20T08:28:16.791Z,3.30
2019-04-20T08:31:09.319Z,3.65
2019-04-20T08:33:54.951Z,2.33
2019-04-20T08:36:23.195Z,3.08
2019-04-20T08:39:15.056Z,3.00
2019-04-20T08:41:18.193Z,7.62
2019-04-20T08:44:23.834Z,3.37
2019-04-20T08:46:25.195Z,4.15
2019-04-20T08:48:58.177Z,3.85
2019-04-20T08:51:26.003Z,3.77
2019-04-20T08:53:59.383Z,5.03
2019-04-20T08:56:21.566Z,2.67
2019-04-20T08:58:41.554Z,3.70
2019-04-20T09:01:20.063Z,3.30
2019-04-20T09:03:55.864Z,2.60
2019-04-20T09:06:26.385Z,2.95
2019-04-20T09:08:57.871Z,3.20
2019-04-20T09:11:31.185Z,2.20
2019-04-20T09:13:53.590Z,18.20
2019-04-20T09:16:28.772Z,2.85
2019-04-20T09:18:58.969Z,1.70
2019-04-20T09:21:33.123Z,8.58
2019-04-20T09:24:21.527Z,1.42
2019-04-20T09:26:42.864Z,4.03
2019-04-20T09:29:11.133Z,1.62
2019-04-20T09:31:43.627Z,1.75
2019-04-20T09:34:20.555Z,2.70
2019-04-20T09:36:54.014Z,1.40
2019-04-20T09:39:28.387Z,1.40
2019-04-20T09:42:01.901Z,1.62
2019-04-20T09:44:37.517Z,8.45
2019-04-20T09:47:05.079Z,2.15
2019-04-20T09:49:47.224Z,1.47
2019-04-20T09:52:16.980Z,4.70
2019-04-20T09:54:56.374Z,4.97
2019-04-20T09:57:30.587Z,1.70
2019-04-20T09:59:57.680Z,2.08
2019-04-20T10:02:20.148Z,42.53
2019-04-20T10:04:43.902Z,1.50
2019-04-20T10:07:17.973Z,2.25
2019-04-20T10:09:46.638Z,1.87
2019-04-20T10:12:17.583Z,2.20
2019-04-20T10:14:47.340Z,1.62
2019-04-20T10:17:18.049Z,1.32
2019-04-20T10:19:48.295Z,1.50
2019-04-20T10:22:18.451Z,1.62
2019-04-20T10:24:50.312Z,1.80
2019-04-20T10:27:20.829Z,7.67
2019-04-20T10:29:51.441Z,1.85
2019-04-20T10:32:25.135Z,2.25
2019-04-20T10:34:52.813Z,1.55
2019-04-20T10:37:24.061Z,1.65
2019-04-20T10:39:54.408Z,1.40
2019-04-20T10:42:24.104Z,1.40
2019-04-20T10:44:55.890Z,2.60
2019-04-20T10:47:25.363Z,1.67
2019-04-20T10:49:55.345Z,1.10
2019-04-20T10:52:26.099Z,2.15
2019-04-20T10:54:56.536Z,1.50
2019-04-20T10:57:26.268Z,1.50
2019-04-20T10:59:55.895Z,3.22
2019-04-20T11:02:25.960Z,2.67
2019-04-20T11:04:56.982Z,1.77
2019-04-20T11:07:26.648Z,1.90
2019-04-20T11:10:07.986Z,1.65
2019-04-20T11:12:28.512Z,2.50
2019-04-20T11:14:58.669Z,3.10
2019-04-20T11:17:29.990Z,1.50
2019-04-20T11:20:01.292Z,2.12
2019-04-20T11:22:32.488Z,1.82
2019-04-20T11:25:02.252Z,1.47
2019-04-20T11:27:32.430Z,1.30
2019-04-20T11:30:02.520Z,1.45
2019-04-20T11:32:33.807Z,2.17
2019-04-20T11:35:09.044Z,1.30
2019-04-20T11:37:35.184Z,1.40
2019-04-20T11:40:07.077Z,1.30
2019-04-20T11:42:37.423Z,1.20
2019-04-20T11:45:08.926Z,1.30
2019-04-20T11:47:39.711Z,1.52
2019-04-20T11:50:09.808Z,2.45
2019-04-20T11:52:43.848Z,2.35
2019-04-20T11:55:11.025Z,1.22
2019-04-20T11:57:40.669Z,1.40
2019-04-20T12:00:13.160Z,1.20
2019-04-20T12:03:09.884Z,1.37
2019-04-20T12:05:38.111Z,2.52
2019-04-20T12:08:05.099Z,1.20
2019-04-20T12:10:35.201Z,1.20
2019-04-20T12:13:05.870Z,1.52
2019-04-20T12:15:38.613Z,1.10
2019-04-20T12:18:07.647Z,1.62
2019-04-20T12:20:38.786Z,1.50
2019-04-20T12:23:08.668Z,1.27
2019-04-20T12:25:40.944Z,1.47
2019-04-20T12:28:11.476Z,2.10
2019-04-20T12:30:41.898Z,1.40
2019-04-20T12:33:11.647Z,1.32
2019-04-20T12:35:42.549Z,1.00
2019-04-20T12:38:12.689Z,1.32
2019-04-20T12:40:42.393Z,2.00
2019-04-20T12:43:13.215Z,1.37
2019-04-20T12:45:44.144Z,1.50
2019-04-20T12:48:15.535Z,1.42
2019-04-20T12:50:45.687Z,1.55
2019-04-20T12:53:15.303Z,1.10
2019-04-20T12:55:46.459Z,1.30
2019-04-20T12:58:16.744Z,2.20
2019-04-20T13:00:52.290Z,1.55
2019-04-20T13:03:23.448Z,4.97
2019-04-20T13:05:54.274Z,17.37
2019-04-20T13:08:30.373Z,2.05
2019-04-20T13:10:58.348Z,17.45
2019-04-20T13:13:30.403Z,2.12
2019-04-20T13:16:08.365Z,2.52
2019-04-20T13:18:39.594Z,3.45
2019-04-20T13:21:09.371Z,8.43
2019-04-20T13:23:39.043Z,11.95
2019-04-20T13:26:10.456Z,3.25
2019-04-20T13:28:41.238Z,2.58
2019-04-20T13:31:11.624Z,2.12
2019-04-20T13:33:41.418Z,1.55
2019-04-20T13:36:12.484Z,1.60
2019-04-20T13:38:42.217Z,4.83
2019-04-20T13:41:11.856Z,1.37
2019-04-20T13:43:41.885Z,3.00
2019-04-20T13:46:11.502Z,3.30
2019-04-20T13:48:41.115Z,3.17
2019-04-20T13:51:10.757Z,2.40
2019-04-20T13:53:41.316Z,2.72
2019-04-20T13:56:11.857Z,4.55
2019-04-20T13:58:49.601Z,5.10
2019-04-20T14:01:30.666Z,7.30
2019-04-20T14:04:05.347Z,3.22
2019-04-20T14:06:35.351Z,1.50
2019-04-20T14:09:07.937Z,1.80
2019-04-20T14:11:39.152Z,2.45
2019-04-20T14:14:09.047Z,6.87
2019-04-20T14:16:38.979Z,5.72
2019-04-20T14:19:09.312Z,4.87
2019-04-20T14:21:39.010Z,1.57
2019-04-20T14:24:08.932Z,1.75
2019-04-20T14:26:39.455Z,1.30
2019-04-20T14:29:10.395Z,1.50
2019-04-20T14:31:40.067Z,2.98
2019-04-20T14:34:10.968Z,8.38
2019-04-20T14:36:41.225Z,8.68
2019-04-20T14:39:12.085Z,3.70
2019-04-20T14:41:42.323Z,2.72
2019-04-20T14:44:12.199Z,4.97
2019-04-20T14:46:42.025Z,3.33
2019-04-20T14:49:12.576Z,3.62
2019-04-20T14:51:43.428Z,2.83
2019-04-20T14:54:13.870Z,2.85
2019-04-20T14:56:43.590Z,6.12
2019-04-20T14:59:27.424Z,6.12
2019-04-20T15:02:15.234Z,1.75
2019-04-20T15:04:45.400Z,6.37
2019-04-20T15:07:15.106Z,1.57
2019-04-20T15:09:44.791Z,1.62
2019-04-20T15:12:14.954Z,7.67
2019-04-20T15:14:44.973Z,2.08
2019-04-20T15:17:19.435Z,3.30
2019-04-20T15:19:57.196Z,2.27
2019-04-20T15:22:31.676Z,2.02
2019-04-20T15:25:01.456Z,2.08
2019-04-20T15:27:31.090Z,2.70
2019-04-20T15:30:00.754Z,5.80
2019-04-20T15:32:31.343Z,4.58
2019-04-20T15:35:01.219Z,4.50
2019-04-20T15:37:33.057Z,3.90
2019-04-20T15:40:03.478Z,3.83
2019-04-20T15:42:33.291Z,4.17
2019-04-20T15:45:03.463Z,9.43
2019-04-20T15:47:34.164Z,3.90
2019-04-20T15:50:05.374Z,3.70
2019-04-20T15:52:41.060Z,4.05
2019-04-20T15:55:16.995Z,8.20
2019-04-20T15:57:38.669Z,5.83
2019-04-20T16:00:10.748Z,10.13
2019-04-20T16:02:53.997Z,4.40
2019-04-20T16:05:35.596Z,5.92
2019-04-20T16:08:21.387Z,7.78
2019-04-20T16:11:04.869Z,4.92
2019-04-20T16:13:38.469Z,3.83
2019-04-20T16:16:07.856Z,4.15
2019-04-20T16:18:38.966Z,3.55
2019-04-20T16:21:14.117Z,1.92
2019-04-20T16:23:42.955Z,2.37
2019-04-20T16:26:17.737Z,3.92
2019-04-20T16:28:47.929Z,2.35
2019-04-20T16:31:18.325Z,14.75
2019-04-20T16:33:48.840Z,5.17
2019-04-20T16:36:18.769Z,3.40
2019-04-20T16:38:48.390Z,8.78
2019-04-20T16:41:18.318Z,5.03
2019-04-20T16:43:48.627Z,4.78
2019-04-20T16:46:22.490Z,5.12
2019-04-20T16:48:50.609Z,6.40
2019-04-20T16:51:20.817Z,4.25
2019-04-20T16:53:51.856Z,5.22
2019-04-20T16:56:22.354Z,7.22
2019-04-20T16:58:54.605Z,3.05
2019-04-20T17:01:23.612Z,4.10
2019-04-20T17:04:01.774Z,3.50
2019-04-20T17:06:26.400Z,6.15
2019-04-20T17:08:56.600Z,2.98
2019-04-20T17:11:27.621Z,4.17
2019-04-20T17:13:59.926Z,3.52
2019-04-20T17:16:29.066Z,2.72
2019-04-20T17:18:59.646Z,3.25
2019-04-20T17:21:31.878Z,4.53
2019-04-20T17:24:01.612Z,4.72
2019-04-20T17:26:43.262Z,7.08
2019-04-20T17:29:18.027Z,7.95
2019-04-20T17:32:08.036Z,8.95
2019-04-20T17:34:55.840Z,9.90
2019-04-20T17:37:10.669Z,11.93
2019-04-20T17:40:04.161Z,16.87
2019-04-20T17:42:23.783Z,13.10
2019-04-20T17:44:52.771Z,17.85
2019-04-20T17:47:37.367Z,61.20
2019-04-20T17:50:06.902Z,23.02
2019-04-20T17:52:43.033Z,8.13
2019-04-20T17:54:55.820Z,12.13
2019-04-20T17:57:25.655Z,10.80
2019-04-20T18:00:00.407Z,10.82
2019-04-20T18:02:53.508Z,14.18
2019-04-20T18:05:26.983Z,19.90
2019-04-20T18:08:04.168Z,22.30
2019-04-20T18:10:30.304Z,17.60
2019-04-20T18:12:50.218Z,17.67
2019-04-20T18:15:36.004Z,14.93
2019-04-20T18:18:10.281Z,14.25
2019-04-20T18:20:42.791Z,16.80
2019-04-20T18:23:12.946Z,17.52
2019-04-20T18:26:07.906Z,18.20
2019-04-20T18:28:31.669Z,18.15
2019-04-20T18:30:59.046Z,13.53
2019-04-20T18:33:29.971Z,9.65
2019-04-20T18:35:58.322Z,13.43
2019-04-20T18:38:32.551Z,13.22
2019-04-20T18:41:05.975Z,11.75
2019-04-20T18:43:32.633Z,11.20
2019-04-20T18:46:17.637Z,14.80
2019-04-20T18:48:57.047Z,10.53
2019-04-20T18:51:05.936Z,8.78
2019-04-20T18:53:41.086Z,9.95
2019-04-20T18:56:08.124Z,9.60
2019-04-20T18:58:38.255Z,9.25
2019-04-20T19:01:07.906Z,8.90
2019-04-20T19:03:41.852Z,8.20
2019-04-20T19:06:09.526Z,9.25
2019-04-20T19:08:46.357Z,8.20
2019-04-20T19:11:16.542Z,8.60
2019-04-20T19:13:47.763Z,10.20
2019-04-20T19:16:46.724Z,9.85
2019-04-20T19:19:30.153Z,8.38
2019-04-20T19:21:52.059Z,17.32
2019-04-20T19:24:26.455Z,11.97
2019-04-20T19:26:57.428Z,16.40
2019-04-20T19:29:33.354Z,13.88
2019-04-20T19:32:11.596Z,15.08
2019-04-20T19:34:43.168Z,15.78
2019-04-20T19:37:10.537Z,15.60
2019-04-20T19:39:47.126Z,28.57
2019-04-20T19:42:15.216Z,40.43
2019-04-20T19:44:45.047Z,30.43
2019-04-20T19:47:24.931Z,20.88
2019-04-20T19:49:44.959Z,16.23
2019-04-20T19:52:36.689Z,14.13
2019-04-20T19:54:54.730Z,12.45
2019-04-20T19:57:26.630Z,11.70
2019-04-20T19:59:46.273Z,11.28
2019-04-20T20:02:13.837Z,11.60
2019-04-20T20:04:49.226Z,11.73
2019-04-20T20:07:26.385Z,11.65
2019-04-20T20:09:53.149Z,11.88
2019-04-20T20:12:19.806Z,11.00
2019-04-20T20:14:51.281Z,13.25
2019-04-20T20:17:44.292Z,15.60
2019-04-20T20:20:22.879Z,14.70
2019-04-20T20:22:32.311Z,13.68
2019-04-20T20:24:54.886Z,12.93
2019-04-20T20:27:35.279Z,12.73
2019-04-20T20:30:07.012Z,12.85
2019-04-20T20:32:49.191Z,12.73
2019-04-20T20:35:06.606Z,12.55
2019-04-20T20:37:39.977Z,12.05
2019-04-20T20:40:15.215Z,11.70
2019-04-20T20:42:48.679Z,13.45
2019-04-20T20:45:18.754Z,12.73
2019-04-20T20:47:54.522Z,23.50
2019-04-20T20:50:33.843Z,14.15
2019-04-20T20:52:54.806Z,17.90
2019-04-20T20:55:24.647Z,17.80
2019-04-20T20:57:50.859Z,20.50
2019-04-20T21:00:34.398Z,25.57
2019-04-20T21:02:53.826Z,23.60
2019-04-20T21:05:17.701Z,17.42
2019-04-20T21:07:50.794Z,13.88
2019-04-20T21:10:26.878Z,26.65
2019-04-20T21:12:55.413Z,16.12
2019-04-20T21:15:24.263Z,14.35
2019-04-20T21:18:17.649Z,14.55
2019-04-20T21:20:46.106Z,29.95
2019-04-20T21:23:14.269Z,19.65
2019-04-20T21:25:37.062Z,21.25
2019-04-20T21:28:02.548Z,16.23
2019-04-20T21:30:38.031Z,19.15
2019-04-20T21:33:05.552Z,14.95
2019-04-20T21:35:38.140Z,15.43
2019-04-20T21:38:09.657Z,16.32
2019-04-20T21:40:41.442Z,17.75
2019-04-20T21:43:10.527Z,19.23
2019-04-20T21:45:48.473Z,17.45
2019-04-20T21:48:31.744Z,17.90
2019-04-20T21:51:03.815Z,15.20
2019-04-20T21:53:19.735Z,15.98
2019-04-20T21:55:46.005Z,11.75
2019-04-20T21:58:19.329Z,10.80
2019-04-20T22:01:05.094Z,11.60
2019-04-20T22:03:24.725Z,12.88
2019-04-20T22:06:02.816Z,15.65
2019-04-20T22:08:32.798Z,14.05
2019-04-20T22:11:03.896Z,12.45
2019-04-20T22:13:39.782Z,16.42
2019-04-20T22:16:10.313Z,15.43
2019-04-20T22:18:48.422Z,17.45
2019-04-20T22:21:19.888Z,19.20
2019-04-20T22:23:57.211Z,19.00
2019-04-20T22:26:23.221Z,18.85
2019-04-20T22:28:42.395Z,16.73
2019-04-20T22:31:12.143Z,15.83
2019-04-20T22:33:44.570Z,16.52
2019-04-20T22:36:14.526Z,17.73
2019-04-20T22:39:03.411Z,17.92
2019-04-20T22:41:34.471Z,14.85
2019-04-20T22:44:09.462Z,15.30
2019-04-20T22:46:39.050Z,14.38
2019-04-20T22:49:28.190Z,14.65
2019-04-20T22:51:48.246Z,13.83
2019-04-20T22:54:29.760Z,13.75
2019-04-20T22:56:55.339Z,13.20
2019-04-20T22:59:18.495Z,13.15
2019-04-20T23:01:49.145Z,12.88
2019-04-20T23:04:16.927Z,12.30
2019-04-20T23:06:50.074Z,12.65
2019-04-20T23:09:18.740Z,12.33
2019-04-20T23:11:49.481Z,13.10
2019-04-20T23:14:20.361Z,11.93
2019-04-20T23:16:53.499Z,12.37
2019-04-20T23:19:32.335Z,13.48
2019-04-20T23:21:59.070Z,14.05
2019-04-20T23:24:24.188Z,13.55
2019-04-20T23:26:55.023Z,13.35
2019-04-20T23:29:27.252Z,12.58
2019-04-20T23:32:02.442Z,12.47
2019-04-20T23:34:30.981Z,12.65
2019-04-20T23:36:59.132Z,12.68
2019-04-20T23:39:35.474Z,12.80
2019-04-20T23:42:05.580Z,14.03
2019-04-20T23:44:40.035Z,12.90
2019-04-20T23:47:13.568Z,12.05
2019-04-20T23:50:00.249Z,13.30
2019-04-20T23:52:40.039Z,12.65
2019-04-20T23:54:52.585Z,13.62
2019-04-20T23:57:15.710Z,12.50
2019-04-20T23:59:46.973Z,13.28
